createdAt,value
2022-10-27T00:03:17.870Z,100625.95
2022-10-27T00:08:25.892Z,100630.25
2022-10-27T00:13:34.972Z,100625.28
2022-10-27T00:18:42.949Z,100622.46
2022-10-27T00:23:52.381Z,100624.27
2022-10-27T00:28:59.983Z,100615.59
2022-10-27T00:34:07.429Z,100616.09
2022-10-27T00:39:15.282Z,100617.00
2022-10-27T00:44:37.293Z,100620.75
2022-10-27T00:49:48.509Z,100634.41
2022-10-27T00:54:57.580Z,100635.45
2022-10-27T01:00:07.191Z,100651.64
2022-10-27T01:05:19.389Z,100659.90
2022-10-27T01:10:25.427Z,100651.65
2022-10-27T01:15:38.822Z,100643.46
2022-10-27T01:21:25.704Z,100639.81
2022-10-27T01:26:50.549Z,100651.16
2022-10-27T01:32:06.829Z,100647.88
2022-10-27T01:37:19.071Z,100643.69
2022-10-27T01:42:27.511Z,100644.65
2022-10-27T01:47:35.790Z,100645.25
2022-10-27T01:52:46.666Z,100643.23
2022-10-27T01:58:09.781Z,100645.56
2022-10-27T02:03:21.780Z,100648.96
2022-10-27T02:08:36.581Z,100642.55
2022-10-27T02:13:47.448Z,100648.42
2022-10-27T02:19:00.518Z,100654.27
2022-10-27T02:24:08.750Z,100650.79
2022-10-27T02:29:20.260Z,100649.57
2022-10-27T02:34:29.340Z,100639.55
2022-10-27T02:39:36.741Z,100644.59
2022-10-27T02:44:44.600Z,100642.44
2022-10-27T02:49:52.340Z,100644.15
2022-10-27T02:54:59.866Z,100650.27
2022-10-27T03:00:09.027Z,100656.34
2022-10-27T03:05:16.808Z,100656.45
2022-10-27T03:10:24.301Z,100655.84
2022-10-27T03:15:31.596Z,100654.56
2022-10-27T03:20:39.049Z,100655.84
2022-10-27T03:25:47.707Z,100655.95
2022-10-27T03:30:56.101Z,100660.30
2022-10-27T03:36:03.678Z,100660.09
2022-10-27T03:41:11.443Z,100663.95
2022-10-27T03:46:19.077Z,100673.85
2022-10-27T03:51:26.468Z,100661.70
2022-10-27T03:56:34.262Z,100672.20
2022-10-27T04:01:42.197Z,100666.19
2022-10-27T04:06:49.965Z,100669.05
2022-10-27T04:11:57.756Z,100667.23
2022-10-27T04:17:05.238Z,100668.38
2022-10-27T04:22:13.062Z,100670.43
2022-10-27T04:27:20.748Z,100681.31
2022-10-27T04:32:28.473Z,100686.59
2022-10-27T04:37:36.355Z,100680.01
2022-10-27T04:42:48.212Z,100679.05
2022-10-27T04:47:56.116Z,100678.77
2022-10-27T04:53:04.988Z,100680.27
2022-10-27T04:58:12.683Z,100684.91
2022-10-27T05:03:20.399Z,100690.46
2022-10-27T05:08:28.124Z,100688.98
2022-10-27T05:13:35.918Z,100696.10
2022-10-27T05:18:43.651Z,100699.17
2022-10-27T05:23:51.243Z,100698.06
2022-10-27T05:28:58.574Z,100701.29
2022-10-27T05:34:06.478Z,100704.34
2022-10-27T05:39:13.880Z,100706.86
2022-10-27T05:44:21.442Z,100707.27
2022-10-27T05:49:28.934Z,100713.30
2022-10-27T05:54:36.616Z,100714.85
2022-10-27T05:59:44.224Z,100723.83
2022-10-27T06:04:52.190Z,100725.33
2022-10-27T06:09:59.605Z,100730.34
2022-10-27T06:15:07.681Z,100726.05
2022-10-27T06:20:15.997Z,100738.24
2022-10-27T06:25:24.244Z,100744.91
2022-10-27T06:30:32.024Z,100752.43
2022-10-27T06:35:39.569Z,100749.39
2022-10-27T06:40:47.735Z,100756.40
2022-10-27T06:45:58.589Z,100762.17
2022-10-27T06:51:08.999Z,100759.48
2022-10-27T06:56:16.674Z,100754.16
2022-10-27T07:01:24.411Z,100757.27
2022-10-27T07:06:32.384Z,100763.08
2022-10-27T07:11:40.128Z,100768.59
2022-10-27T07:16:47.906Z,100767.39
2022-10-27T07:21:56.236Z,100778.64
2022-10-27T07:27:05.522Z,100785.54
2022-10-27T07:32:15.057Z,100792.60
2022-10-27T07:37:22.904Z,100797.34
2022-10-27T07:42:30.480Z,100770.39
2022-10-27T07:47:38.520Z,100785.24
2022-10-27T07:52:50.662Z,100783.92
2022-10-27T07:58:01.934Z,100784.37
2022-10-27T08:03:12.802Z,100794.86
2022-10-27T08:08:20.961Z,100798.78
2022-10-27T08:13:28.918Z,100804.33
2022-10-27T08:18:37.039Z,100812.69
2022-10-27T08:23:45.053Z,100820.33
2022-10-27T08:28:53.246Z,100831.20
2022-10-27T08:34:00.797Z,100835.39
2022-10-27T08:39:08.156Z,100834.23
2022-10-27T08:44:26.446Z,100834.08
2022-10-27T08:49:41.286Z,100823.67
2022-10-27T08:54:54.993Z,100817.94
2022-10-27T09:00:03.117Z,100813.85
2022-10-27T09:05:30.928Z,100816.61
2022-10-27T09:10:46.135Z,100831.75
2022-10-27T09:15:57.778Z,100824.83
2022-10-27T09:21:12.599Z,100823.35
2022-10-27T09:26:23.110Z,100823.64
2022-10-27T09:31:38.743Z,100825.41
2022-10-27T09:36:46.784Z,100826.23
2022-10-27T09:41:55.007Z,100829.08
2022-10-27T09:47:02.611Z,100828.84
2022-10-27T09:52:17.561Z,100822.19
2022-10-27T09:57:29.541Z,100812.20
2022-10-27T10:02:41.954Z,100824.91
2022-10-27T10:07:53.886Z,100819.89
2022-10-27T10:13:15.473Z,100819.12
2022-10-27T10:18:29.923Z,100822.53
2022-10-27T10:23:41.272Z,100819.43
2022-10-27T10:28:53.509Z,100825.87
2022-10-27T10:34:31.602Z,100831.23
2022-10-27T10:39:40.844Z,100825.61
2022-10-27T10:44:51.588Z,100824.94
2022-10-27T10:50:02.621Z,100824.63
2022-10-27T10:55:20.810Z,100822.92
2022-10-27T11:00:28.599Z,100819.06
2022-10-27T11:05:38.764Z,100823.27
2022-10-27T11:10:48.586Z,100825.89
2022-10-27T11:16:01.426Z,100817.34
2022-10-27T11:21:16.846Z,100817.68
2022-10-27T11:26:30.931Z,100824.92
2022-10-27T11:31:46.363Z,100818.05
2022-10-27T11:37:00.322Z,100815.64
2022-10-27T11:42:19.318Z,100811.27
2022-10-27T11:47:31.657Z,100808.73
2022-10-27T11:52:44.187Z,100801.98
2022-10-27T11:58:00.723Z,100801.73
2022-10-27T12:03:54.627Z,100805.77
2022-10-27T12:09:16.411Z,100809.57
2022-10-27T12:14:31.786Z,100806.59
2022-10-27T12:19:44.540Z,100795.66
2022-10-27T12:24:58.399Z,100794.66
2022-10-27T12:30:11.135Z,100794.01
2022-10-27T12:35:25.105Z,100787.38
2022-10-27T12:40:40.580Z,100777.28
2022-10-27T12:46:01.841Z,100794.34
2022-10-27T12:51:19.635Z,100795.26
2022-10-27T12:56:37.376Z,100794.51
2022-10-27T13:01:57.135Z,100788.79
2022-10-27T13:07:37.617Z,100786.42
2022-10-27T13:12:59.549Z,100792.06
2022-10-27T13:18:16.934Z,100794.23
2022-10-27T13:23:32.841Z,100790.41
2022-10-27T13:28:46.723Z,100790.11
2022-10-27T13:34:23.905Z,100784.48
2022-10-27T13:39:48.551Z,100787.85
2022-10-27T13:44:56.456Z,100791.42
2022-10-27T13:50:04.781Z,100786.48
2022-10-27T13:55:36.390Z,100787.04
2022-10-27T14:01:14.819Z,100790.10
2022-10-27T14:06:32.466Z,100790.13
2022-10-27T14:11:42.864Z,100789.81
2022-10-27T14:16:50.492Z,100788.79
2022-10-27T14:22:00.256Z,100786.90
2022-10-27T14:27:08.845Z,100790.13
2022-10-27T14:32:22.864Z,100791.39
2022-10-27T14:37:32.422Z,100794.15
2022-10-27T14:42:40.035Z,100792.98
2022-10-27T14:47:53.964Z,100799.10
2022-10-27T14:53:03.503Z,100801.42
2022-10-27T14:58:23.380Z,100799.48
2022-10-27T15:03:36.793Z,100801.48
2022-10-27T15:08:45.189Z,100799.66
2022-10-27T15:13:53.976Z,100797.38
2022-10-27T15:19:01.500Z,100796.17
2022-10-27T15:24:13.333Z,100792.25
2022-10-27T15:29:22.547Z,100790.66
2022-10-27T15:34:36.665Z,100793.95
2022-10-27T15:39:44.141Z,100795.30
2022-10-27T15:44:52.256Z,100795.42
2022-10-27T15:50:00.180Z,100795.59
2022-10-27T15:55:23.122Z,100798.16
2022-10-27T16:00:31.329Z,100797.25
2022-10-27T16:05:46.979Z,100796.45
2022-10-27T16:10:55.526Z,100805.59
2022-10-27T16:16:03.457Z,100804.60
2022-10-27T16:21:30.326Z,100809.77
2022-10-27T16:26:38.898Z,100817.75
2022-10-27T16:31:46.925Z,100819.17
2022-10-27T16:36:54.593Z,100821.82
2022-10-27T16:42:02.133Z,100824.64
2022-10-27T16:47:10.952Z,100818.50
2022-10-27T16:52:18.540Z,100824.58
2022-10-27T16:57:26.769Z,100818.34
2022-10-27T17:02:34.356Z,100819.67
2022-10-27T17:07:42.710Z,100821.92
2022-10-27T17:12:50.665Z,100821.90
2022-10-27T17:17:58.874Z,100817.71
2022-10-27T17:23:06.624Z,100815.86
2022-10-27T17:28:14.033Z,100804.15
2022-10-27T17:33:21.551Z,100805.27
2022-10-27T17:38:29.278Z,100806.36
2022-10-27T17:43:37.422Z,100811.90
2022-10-27T17:48:46.863Z,100816.77
2022-10-27T17:53:56.003Z,100817.27
2022-10-27T17:59:03.958Z,100818.99
2022-10-27T18:04:13.232Z,100820.08
2022-10-27T18:09:21.520Z,100816.39
2022-10-27T18:14:29.121Z,100810.45
2022-10-27T18:19:36.848Z,100809.96
2022-10-27T18:24:44.767Z,100811.98
2022-10-27T18:29:52.358Z,100816.46
2022-10-27T18:35:00.141Z,100815.96
2022-10-27T18:40:09.267Z,100818.38
2022-10-27T18:45:17.204Z,100830.52
2022-10-27T18:50:25.217Z,100836.23
2022-10-27T18:55:36.432Z,100838.55
2022-10-27T19:00:44.802Z,100836.84
2022-10-27T19:05:58.321Z,100838.64
2022-10-27T19:11:11.857Z,100835.71
2022-10-27T19:16:21.223Z,100833.45
2022-10-27T19:21:29.977Z,100836.27
2022-10-27T19:26:38.464Z,100837.19
2022-10-27T19:31:45.956Z,100842.07
2022-10-27T19:36:53.278Z,100837.15
2022-10-27T19:42:01.833Z,100840.92
2022-10-27T19:47:09.747Z,100844.02
2022-10-27T19:52:18.999Z,100842.65
2022-10-27T19:57:26.984Z,100849.56
2022-10-27T20:02:34.581Z,100836.31
2022-10-27T20:07:42.076Z,100835.10
2022-10-27T20:12:50.293Z,100856.21
2022-10-27T20:17:57.898Z,100856.27
2022-10-27T20:23:05.785Z,100864.06
2022-10-27T20:28:13.722Z,100867.27
2022-10-27T20:33:21.736Z,100868.08
2022-10-27T20:38:29.581Z,100871.81
2022-10-27T20:43:37.824Z,100866.09
2022-10-27T20:48:45.662Z,100865.63
2022-10-27T20:53:54.137Z,100862.52
2022-10-27T20:59:02.669Z,100865.25
2022-10-27T21:04:12.509Z,100868.32
2022-10-27T21:09:21.762Z,100869.79
2022-10-27T21:14:29.665Z,100867.99
2022-10-27T21:19:37.473Z,100870.50
2022-10-27T21:24:45.111Z,100870.10
2022-10-27T21:29:52.964Z,100864.89
2022-10-27T21:35:00.510Z,100861.30
2022-10-27T21:40:09.961Z,100860.32
2022-10-27T21:45:18.024Z,100851.81
2022-10-27T21:50:25.972Z,100850.12
2022-10-27T21:55:33.688Z,100849.42
2022-10-27T22:00:41.597Z,100852.07
2022-10-27T22:05:56.144Z,100848.54
2022-10-27T22:11:09.621Z,100852.55
2022-10-27T22:16:18.488Z,100853.54
2022-10-27T22:21:26.946Z,100854.54
2022-10-27T22:26:34.800Z,100852.16
2022-10-27T22:31:42.224Z,100853.63
2022-10-27T22:36:49.594Z,100851.02
2022-10-27T22:41:56.955Z,100844.02
2022-10-27T22:47:04.363Z,100845.64
2022-10-27T22:52:12.483Z,100843.02
2022-10-27T22:57:20.117Z,100842.57
2022-10-27T23:02:27.972Z,100834.75
2022-10-27T23:07:36.276Z,100831.92
2022-10-27T23:12:44.106Z,100838.78
2022-10-27T23:17:51.992Z,100841.07
2022-10-27T23:22:59.614Z,100838.11
2022-10-27T23:28:07.471Z,100838.48
2022-10-27T23:33:16.073Z,100841.98
2022-10-27T23:43:32.405Z,100834.52
2022-10-27T23:48:40.706Z,100831.83
2022-10-27T23:53:48.543Z,100829.28
2022-10-27T23:58:56.301Z,100825.18
